Lady Maryland — WTV4008 — position and weather

sailwx.info

Track history (hours):
 
Tides and Currents Weather Stations Pressure Air Temp Water Temp Dewpoint Dewpoint Depression Visibility Wind Speed Wind Dir Waves Ship Positions

Lady Maryland

Owner: LIVING CLASSROOMS FOUNDATION, BALTIMORE, MD. More information available from US FCC via Universal Licensing System and Coast Guard Vessel Documentation Center.

Last reported at 2019-Aug-15 15:41 UTC. Time now 2019-Aug-22 10:13 UTC.
Position N 39°16' W 076°35'.

Length 22 m.

Type: Sailing vessel. MMSI: 367350650.

Date/timePositionNaut miles runAvg speedWind from/ knotsBaromVisibWave heightAir tempDewpointWater temp
2019-Aug-15 15:41N 39°16' W 076°35'1 2.9
2019-Aug-15 15:30N 39°16' W 076°34'1 1.0
2019-Aug-15 15:00N 39°16' W 076°34'  
2019-Aug-11 16:24N 39°16' W 076°35'31 1.9
2019-Aug-11 00:33N 39°28' W 075°58'1 8.0
2019-Aug-11 00:29N 39°28' W 075°58'6 7.4
2019-Aug-10 23:44N 39°32' W 075°52'2 8.2
2019-Aug-10 23:29N 39°32' W 075°49'4 7.4
2019-Aug-10 23:00N 39°32' W 075°45'4 7.1
2019-Aug-10 22:30N 39°33' W 075°40'3 6.5
2019-Aug-10 22:00N 39°33' W 075°36'3 5.4
2019-Aug-10 21:30N 39°33' W 075°33'4 8.5
2019-Aug-10 20:59N 39°28' W 075°34'4 7.8
2019-Aug-10 20:29N 39°25' W 075°31'4 7.5
2019-Aug-10 20:00N 39°22' W 075°28'3 6.9
2019-Aug-10 19:30N 39°20' W 075°25'3 6.5
2019-Aug-10 18:58N 39°17' W 075°22'60 3.4
2019-Aug-10 00:57N 39°36' W 074°07'3 6.9
2019-Aug-10 00:28N 39°39' W 074°06'7 5.2
2019-Aug-09 23:10N 39°42' W 073°58'2 5.0
2019-Aug-09 22:46N 39°42' W 073°56'2 7.5
2019-Aug-09 22:30N 39°44' W 073°57'55 2.4
2019-Aug-09 00:11N 40°39' W 074°03'2 8.8
2019-Aug-08 23:56N 40°41' W 074°02'2 1.5
2019-Aug-08 22:40N 40°43' W 074°02'1 2.1
2019-Aug-08 22:24N 40°42' W 074°02'3 5.2
2019-Aug-08 21:55N 40°43' W 073°59'90 3.0
2019-Aug-07 15:56N 41°16' W 072°08'2 4.6
2019-Aug-07 15:28N 41°17' W 072°06'5 5.6
2019-Aug-07 14:31N 41°18' W 071°59'1 5.4
2019-Aug-07 14:23N 41°19' W 071°59'2 0.1
2019-Aug-05 22:00N 41°16' W 071°60'0 0.0
2019-Aug-05 21:30N 41°16' W 071°60'0 0.6
2019-Aug-05 20:59N 41°16' W 072°00'1 2.4
2019-Aug-05 20:30N 41°17' W 071°59'  
Track history (hours):
 
Tides and Currents Weather Stations Pressure Air Temp Water Temp Dewpoint Dewpoint Depression Visibility Wind Speed Wind Dir Waves Ship Positions

Lady Maryland

Owner: LIVING CLASSROOMS FOUNDATION, BALTIMORE, MD. More information available from US FCC via Universal Licensing System and Coast Guard Vessel Documentation Center.

Last reported at 2019-Aug-15 15:41 UTC. Time now 2019-Aug-22 10:13 UTC.
Position N 39°16' W 076°35'.

Length 22 m.

Type: Sailing vessel. MMSI: 367350650.

Date/timePositionNaut miles runAvg speedWind from/ knotsBaromVisibWave heightAir tempDewpointWater temp
2019-Aug-15 15:41N 39°16' W 076°35'1 2.9
2019-Aug-15 15:30N 39°16' W 076°34'1 1.0
2019-Aug-15 15:00N 39°16' W 076°34'  
2019-Aug-11 16:24N 39°16' W 076°35'31 1.9
2019-Aug-11 00:33N 39°28' W 075°58'1 8.0
2019-Aug-11 00:29N 39°28' W 075°58'6 7.4
2019-Aug-10 23:44N 39°32' W 075°52'2 8.2
2019-Aug-10 23:29N 39°32' W 075°49'4 7.4
2019-Aug-10 23:00N 39°32' W 075°45'4 7.1
2019-Aug-10 22:30N 39°33' W 075°40'3 6.5
2019-Aug-10 22:00N 39°33' W 075°36'3 5.4
2019-Aug-10 21:30N 39°33' W 075°33'4 8.5
2019-Aug-10 20:59N 39°28' W 075°34'4 7.8
2019-Aug-10 20:29N 39°25' W 075°31'4 7.5
2019-Aug-10 20:00N 39°22' W 075°28'3 6.9
2019-Aug-10 19:30N 39°20' W 075°25'3 6.5
2019-Aug-10 18:58N 39°17' W 075°22'60 3.4
2019-Aug-10 00:57N 39°36' W 074°07'3 6.9
2019-Aug-10 00:28N 39°39' W 074°06'7 5.2
2019-Aug-09 23:10N 39°42' W 073°58'2 5.0
2019-Aug-09 22:46N 39°42' W 073°56'2 7.5
2019-Aug-09 22:30N 39°44' W 073°57'55 2.4
2019-Aug-09 00:11N 40°39' W 074°03'2 8.8
2019-Aug-08 23:56N 40°41' W 074°02'2 1.5
2019-Aug-08 22:40N 40°43' W 074°02'1 2.1
2019-Aug-08 22:24N 40°42' W 074°02'3 5.2
2019-Aug-08 21:55N 40°43' W 073°59'90 3.0
2019-Aug-07 15:56N 41°16' W 072°08'2 4.6
2019-Aug-07 15:28N 41°17' W 072°06'5 5.6
2019-Aug-07 14:31N 41°18' W 071°59'1 5.4
2019-Aug-07 14:23N 41°19' W 071°59'2 0.1
2019-Aug-05 22:00N 41°16' W 071°60'0 0.0
2019-Aug-05 21:30N 41°16' W 071°60'0 0.6
2019-Aug-05 20:59N 41°16' W 072°00'1 2.4
2019-Aug-05 20:30N 41°17' W 071°59'  

Dump ship's entire track history